createdAt,value
2023-03-26T00:00:55.733Z,96.50
2023-03-26T00:03:30.159Z,96.60
2023-03-26T00:06:04.602Z,96.60
2023-03-26T00:08:33.446Z,96.50
2023-03-26T00:11:01.805Z,96.60
2023-03-26T00:13:30.525Z,96.70
2023-03-26T00:15:58.965Z,96.70
2023-03-26T00:18:30.612Z,96.70
2023-03-26T00:20:59.288Z,96.60
2023-03-26T00:23:29.347Z,96.80
2023-03-26T00:25:57.761Z,96.80
2023-03-26T00:28:27.342Z,96.80
2023-03-26T00:30:59.159Z,96.80
2023-03-26T00:33:27.617Z,96.80
2023-03-26T00:35:58.526Z,96.70
2023-03-26T00:38:28.984Z,96.90
2023-03-26T00:41:05.824Z,96.80
2023-03-26T00:43:34.885Z,97.00
2023-03-26T00:46:07.217Z,96.90
2023-03-26T00:48:44.954Z,97.00
2023-03-26T00:51:15.671Z,97.00
2023-03-26T00:53:45.753Z,97.00
2023-03-26T00:56:14.198Z,96.90
2023-03-26T00:58:42.570Z,97.00
2023-03-26T01:01:13.459Z,97.00
2023-03-26T01:03:50.158Z,96.90
2023-03-26T01:06:27.755Z,97.00
2023-03-26T01:09:00.397Z,97.10
2023-03-26T01:11:31.195Z,97.00
2023-03-26T01:14:01.364Z,97.00
2023-03-26T01:16:30.865Z,97.10
2023-03-26T01:19:00.447Z,97.10
2023-03-26T01:21:30.192Z,97.10
2023-03-26T01:24:01.574Z,97.20
2023-03-26T01:26:41.502Z,97.10
2023-03-26T01:29:14.283Z,97.10
2023-03-26T01:31:45.344Z,97.20
2023-03-26T01:34:15.752Z,97.20
2023-03-26T01:36:46.955Z,97.20
2023-03-26T01:39:18.643Z,97.20
2023-03-26T01:41:47.916Z,97.20
2023-03-26T01:44:18.397Z,97.30
2023-03-26T01:46:46.763Z,97.20
2023-03-26T01:49:16.276Z,97.20
2023-03-26T01:51:44.666Z,97.20
2023-03-26T01:54:16.874Z,97.20
2023-03-26T01:56:51.830Z,97.10
2023-03-26T01:59:30.020Z,97.30
2023-03-26T02:02:01.267Z,97.40
2023-03-26T02:04:33.175Z,97.30
2023-03-26T02:07:05.688Z,97.50
2023-03-26T02:09:36.978Z,97.50
2023-03-26T02:12:05.613Z,97.60
2023-03-26T02:14:35.693Z,97.60
2023-03-26T02:17:04.004Z,97.50
2023-03-26T02:19:32.324Z,97.60
2023-03-26T02:22:00.911Z,97.20
2023-03-26T02:24:29.242Z,97.10
2023-03-26T02:27:02.187Z,97.00
2023-03-26T02:29:37.643Z,96.90
2023-03-26T02:32:06.806Z,96.90
2023-03-26T02:34:36.666Z,96.90
2023-03-26T02:37:05.127Z,96.80
2023-03-26T02:39:39.507Z,96.80
2023-03-26T02:42:09.167Z,96.80
2023-03-26T02:44:38.750Z,96.80
2023-03-26T02:47:09.106Z,96.80
2023-03-26T02:49:40.139Z,96.80
2023-03-26T02:52:13.799Z,96.80
2023-03-26T02:54:43.987Z,96.80
2023-03-26T02:57:13.782Z,96.80
2023-03-26T02:59:44.870Z,96.80
2023-03-26T03:02:15.509Z,96.80
2023-03-26T03:04:44.048Z,96.70
2023-03-26T03:07:14.363Z,96.70
2023-03-26T03:09:42.809Z,96.70
2023-03-26T03:12:11.135Z,96.80
2023-03-26T03:14:41.160Z,96.80
2023-03-26T03:17:09.447Z,96.70
2023-03-26T03:19:37.862Z,96.70
2023-03-26T03:22:06.239Z,96.90
2023-03-26T03:24:38.649Z,96.70
2023-03-26T03:27:06.984Z,96.70
2023-03-26T03:29:35.552Z,96.70
2023-03-26T03:32:05.766Z,96.80
2023-03-26T03:34:34.053Z,96.90
2023-03-26T03:37:02.418Z,96.90
2023-03-26T03:39:30.804Z,96.80
2023-03-26T03:41:59.158Z,96.80
2023-03-26T03:44:27.537Z,96.90
2023-03-26T03:46:56.954Z,97.00
2023-03-26T03:49:26.672Z,96.90
2023-03-26T03:51:55.000Z,97.00
2023-03-26T03:54:26.062Z,96.90
2023-03-26T03:56:54.397Z,96.90
2023-03-26T03:59:22.788Z,96.90
2023-03-26T04:01:51.465Z,97.00
2023-03-26T04:04:21.413Z,97.00
2023-03-26T04:06:53.772Z,96.90
2023-03-26T04:09:22.178Z,97.00
2023-03-26T04:11:50.968Z,96.90
2023-03-26T04:14:19.273Z,96.90
2023-03-26T04:16:48.931Z,96.90
2023-03-26T04:19:17.336Z,96.90
2023-03-26T04:21:45.670Z,96.90
2023-03-26T04:24:15.427Z,96.90
2023-03-26T04:26:43.767Z,96.90
2023-03-26T04:29:12.876Z,96.90
2023-03-26T04:31:42.997Z,96.90
2023-03-26T04:34:15.684Z,97.00
2023-03-26T04:36:46.288Z,96.90
2023-03-26T04:39:16.369Z,96.90
2023-03-26T04:41:44.765Z,96.90
2023-03-26T04:44:14.215Z,97.00
2023-03-26T04:46:44.911Z,96.90
2023-03-26T04:49:13.397Z,97.00
2023-03-26T04:51:44.797Z,96.90
2023-03-26T04:54:13.640Z,97.00
2023-03-26T04:56:45.661Z,97.00
2023-03-26T04:59:29.123Z,97.10
2023-03-26T05:01:57.840Z,96.90
2023-03-26T05:04:26.577Z,97.50
2023-03-26T05:06:55.138Z,97.10
2023-03-26T05:09:23.597Z,97.00
2023-03-26T05:11:53.301Z,97.00
2023-03-26T05:14:21.678Z,97.10
2023-03-26T05:16:50.295Z,97.10
2023-03-26T05:19:18.801Z,97.00
2023-03-26T05:21:47.177Z,97.00
2023-03-26T05:24:15.762Z,97.10
2023-03-26T05:26:44.323Z,97.10
2023-03-26T05:29:14.807Z,97.10
2023-03-26T05:31:44.218Z,97.10
2023-03-26T05:34:13.791Z,97.10
2023-03-26T05:36:42.474Z,97.40
2023-03-26T05:39:10.843Z,97.10
2023-03-26T05:41:39.291Z,97.10
2023-03-26T05:44:07.589Z,97.20
2023-03-26T05:46:37.537Z,97.10
2023-03-26T05:49:05.828Z,97.00
2023-03-26T05:51:34.122Z,97.10
2023-03-26T05:54:02.490Z,97.10
2023-03-26T05:56:30.963Z,97.10
2023-03-26T05:59:02.115Z,97.00
2023-03-26T06:01:30.435Z,97.10
2023-03-26T06:04:00.393Z,97.10
2023-03-26T06:06:33.085Z,97.00
2023-03-26T06:09:02.972Z,97.10
2023-03-26T06:11:31.680Z,97.20
2023-03-26T06:14:00.270Z,97.20
2023-03-26T06:16:28.699Z,97.10
2023-03-26T06:18:57.942Z,97.20
2023-03-26T06:21:30.578Z,97.30
2023-03-26T06:23:59.028Z,97.00
2023-03-26T06:26:27.312Z,97.00
2023-03-26T06:28:55.794Z,97.00
2023-03-26T06:31:24.110Z,97.00
2023-03-26T06:33:53.242Z,97.00
2023-03-26T06:36:21.689Z,96.90
2023-03-26T06:38:51.437Z,96.90
2023-03-26T06:41:19.830Z,96.80
2023-03-26T06:43:49.401Z,96.80
2023-03-26T06:46:17.775Z,96.80
2023-03-26T06:48:46.683Z,96.90
2023-03-26T06:51:17.916Z,96.90
2023-03-26T06:53:46.292Z,96.90
2023-03-26T06:56:16.031Z,96.90
2023-03-26T06:58:44.490Z,96.90
2023-03-26T07:01:13.003Z,96.90
2023-03-26T07:03:41.428Z,97.00
2023-03-26T07:06:10.400Z,96.90
2023-03-26T07:08:41.500Z,97.00
2023-03-26T07:11:09.905Z,96.90
2023-03-26T07:13:40.006Z,97.10
2023-03-26T07:16:08.873Z,96.90
2023-03-26T07:18:37.258Z,97.10
2023-03-26T07:21:06.592Z,97.30
2023-03-26T07:23:36.771Z,97.30
2023-03-26T07:26:13.609Z,97.40
2023-03-26T07:29:04.486Z,97.30
2023-03-26T07:31:35.966Z,97.20
2023-03-26T07:34:07.186Z,97.30
2023-03-26T07:36:37.061Z,97.30
2023-03-26T07:39:12.267Z,97.20
2023-03-26T07:41:45.272Z,97.10
2023-03-26T07:44:29.796Z,97.20
2023-03-26T07:46:58.444Z,97.00
2023-03-26T07:49:29.362Z,97.00
2023-03-26T07:51:58.642Z,96.90
2023-03-26T07:54:27.517Z,96.90
2023-03-26T07:56:58.869Z,96.90
2023-03-26T07:59:30.927Z,97.00
2023-03-26T08:02:15.039Z,97.00
2023-03-26T08:04:57.324Z,96.90
2023-03-26T08:07:31.307Z,97.00
2023-03-26T08:10:04.268Z,97.00
2023-03-26T08:12:41.909Z,96.90
2023-03-26T08:15:16.113Z,97.00
2023-03-26T08:17:46.493Z,97.10
2023-03-26T08:20:21.222Z,97.10
2023-03-26T08:22:53.032Z,97.10
2023-03-26T08:25:27.545Z,97.10
2023-03-26T08:28:07.455Z,97.20
2023-03-26T08:30:37.531Z,97.20
2023-03-26T08:33:12.906Z,97.20
2023-03-26T08:35:42.408Z,97.20
2023-03-26T08:38:11.532Z,97.20
2023-03-26T08:41:09.689Z,97.30
2023-03-26T08:43:58.029Z,97.10
2023-03-26T08:46:37.547Z,97.00
2023-03-26T08:49:25.908Z,96.80
2023-03-26T08:52:23.053Z,96.80
2023-03-26T08:55:25.915Z,96.70
2023-03-26T08:58:18.116Z,96.70
2023-03-26T09:01:01.321Z,96.80
2023-03-26T09:03:57.297Z,96.70
2023-03-26T09:06:35.276Z,96.90
2023-03-26T09:09:19.353Z,96.90
2023-03-26T09:12:11.501Z,98.40
2023-03-26T09:15:17.375Z,99.60
2023-03-26T09:18:02.625Z,99.90
2023-03-26T09:20:54.931Z,99.90
2023-03-26T09:23:56.000Z,99.90
2023-03-26T09:26:38.853Z,99.70
2023-03-26T09:29:49.460Z,99.40
2023-03-26T09:32:52.814Z,99.70
2023-03-26T09:35:38.230Z,99.60
2023-03-26T09:38:12.759Z,99.80
2023-03-26T09:40:45.094Z,99.90
2023-03-26T09:43:41.690Z,99.90
2023-03-26T09:46:18.609Z,99.90
2023-03-26T09:49:26.286Z,99.90
2023-03-26T09:52:07.398Z,99.90
2023-03-26T09:55:14.650Z,99.90
2023-03-26T09:57:54.193Z,99.70
2023-03-26T10:00:26.399Z,99.40
2023-03-26T10:03:20.766Z,99.50
2023-03-26T10:06:03.379Z,99.20
2023-03-26T10:08:54.314Z,98.70
2023-03-26T10:11:35.440Z,99.60
2023-03-26T10:14:07.739Z,99.00
2023-03-26T10:16:42.939Z,97.90
2023-03-26T10:19:21.798Z,96.50
2023-03-26T10:21:55.010Z,97.10
2023-03-26T10:24:49.032Z,96.70
2023-03-26T10:27:28.558Z,96.10
2023-03-26T10:30:30.380Z,95.50
2023-03-26T10:33:03.055Z,95.90
2023-03-26T10:35:41.177Z,96.40
2023-03-26T10:38:18.024Z,96.30
2023-03-26T10:40:52.721Z,96.60
2023-03-26T10:43:57.858Z,96.90
2023-03-26T10:47:02.036Z,96.80
2023-03-26T10:49:39.758Z,96.80
2023-03-26T10:52:08.505Z,97.10
2023-03-26T10:54:45.247Z,97.40
2023-03-26T10:57:19.871Z,96.80
2023-03-26T10:59:49.570Z,96.90
2023-03-26T11:02:31.151Z,96.90
2023-03-26T11:05:18.631Z,96.80
2023-03-26T11:07:54.180Z,96.90
2023-03-26T11:10:27.604Z,96.60
2023-03-26T11:13:00.026Z,96.80
2023-03-26T11:15:31.491Z,97.10
2023-03-26T11:18:04.806Z,96.90
2023-03-26T11:20:36.768Z,96.90
2023-03-26T11:23:21.419Z,96.90
2023-03-26T11:26:06.191Z,96.90
2023-03-26T11:31:53.438Z,96.70
2023-03-26T11:34:24.309Z,96.30
2023-03-26T11:34:36.678Z,96.30
2023-03-26T11:36:54.002Z,96.30
2023-03-26T11:39:23.747Z,96.40
2023-03-26T11:41:52.841Z,96.20
2023-03-26T11:44:22.634Z,96.40
2023-03-26T11:46:53.829Z,96.00
2023-03-26T11:49:23.929Z,96.00
2023-03-26T11:51:52.376Z,95.50
2023-03-26T11:54:21.001Z,95.70
2023-03-26T11:57:04.504Z,95.40
2023-03-26T11:59:45.177Z,95.90
2023-03-26T12:02:28.998Z,95.70
2023-03-26T12:05:12.009Z,95.80
2023-03-26T12:07:46.531Z,95.90
2023-03-26T12:10:26.104Z,95.90
2023-03-26T12:12:55.875Z,95.70
2023-03-26T12:15:24.212Z,95.30
2023-03-26T12:17:56.432Z,95.70
2023-03-26T12:20:36.616Z,95.30
2023-03-26T12:23:06.429Z,95.70
2023-03-26T12:25:35.497Z,95.60
2023-03-26T12:28:04.979Z,95.60
2023-03-26T12:30:34.382Z,95.70
2023-03-26T12:33:07.014Z,95.40
2023-03-26T12:35:36.086Z,95.50
2023-03-26T12:38:24.054Z,95.60
2023-03-26T12:41:05.225Z,95.00
2023-03-26T12:44:54.714Z,95.00
2023-03-26T12:47:57.272Z,95.30
2023-03-26T12:49:19.130Z,95.10
2023-03-26T12:51:49.464Z,95.00
2023-03-26T12:54:24.609Z,94.90
2023-03-26T12:57:12.250Z,95.00
2023-03-26T12:59:48.720Z,94.80
2023-03-26T13:02:35.600Z,94.90
2023-03-26T13:05:12.031Z,94.90
2023-03-26T13:07:48.314Z,94.50
2023-03-26T13:10:34.402Z,94.40
2023-03-26T13:13:11.087Z,94.60
2023-03-26T13:15:39.891Z,94.60
2023-03-26T13:18:16.285Z,94.50
2023-03-26T13:20:51.393Z,94.30
2023-03-26T13:23:26.749Z,94.60
2023-03-26T13:25:57.416Z,94.20
2023-03-26T13:28:30.928Z,94.50
2023-03-26T13:31:04.406Z,94.10
2023-03-26T13:33:39.331Z,94.20
2023-03-26T13:36:23.254Z,93.70
2023-03-26T13:39:02.225Z,93.90
2023-03-26T13:41:36.117Z,93.70
2023-03-26T13:44:18.171Z,93.80
2023-03-26T13:46:48.264Z,93.80
2023-03-26T13:49:17.767Z,94.20
2023-03-26T13:51:49.542Z,93.80
2023-03-26T13:54:19.865Z,93.50
2023-03-26T13:56:49.161Z,93.60
2023-03-26T13:59:20.065Z,93.40
2023-03-26T14:01:51.257Z,93.20
2023-03-26T14:04:24.606Z,93.50
2023-03-26T14:06:57.273Z,93.40
2023-03-26T14:09:29.087Z,93.30
2023-03-26T14:12:27.692Z,93.40
2023-03-26T14:14:57.125Z,93.40
2023-03-26T14:17:30.063Z,93.30
2023-03-26T14:20:14.921Z,93.30
2023-03-26T14:22:48.969Z,93.20
2023-03-26T14:25:25.631Z,93.00
2023-03-26T14:28:03.426Z,92.90
2023-03-26T14:30:57.137Z,93.20
2023-03-26T14:33:39.081Z,93.30
2023-03-26T14:36:11.218Z,93.00
2023-03-26T14:39:06.490Z,92.50
2023-03-26T14:41:36.212Z,93.10
2023-03-26T14:44:29.186Z,93.20
2023-03-26T14:47:17.714Z,92.80
2023-03-26T14:50:10.521Z,92.70
2023-03-26T14:52:43.967Z,92.80
2023-03-26T14:55:17.873Z,92.80
2023-03-26T14:58:13.674Z,92.90
2023-03-26T15:01:06.653Z,92.80
2023-03-26T15:03:57.053Z,92.70
2023-03-26T15:07:06.687Z,92.60
2023-03-26T15:10:19.595Z,92.50
2023-03-26T15:12:55.804Z,92.50
2023-03-26T15:15:57.207Z,92.40
2023-03-26T15:18:55.623Z,92.20
2023-03-26T15:22:01.245Z,92.30
2023-03-26T15:24:54.091Z,92.60
2023-03-26T15:27:47.242Z,92.00
2023-03-26T15:30:36.443Z,91.90
2023-03-26T15:33:27.432Z,92.10
2023-03-26T15:36:30.275Z,92.30
2023-03-26T15:40:07.668Z,92.20
2023-03-26T15:42:46.064Z,92.20
2023-03-26T15:45:27.755Z,92.30
2023-03-26T15:48:28.066Z,92.50
2023-03-26T15:51:00.640Z,92.00
2023-03-26T15:53:35.599Z,91.80
2023-03-26T15:56:11.455Z,91.90
2023-03-26T15:58:46.108Z,91.60
2023-03-26T16:01:21.085Z,91.80
2023-03-26T16:03:55.419Z,91.40
2023-03-26T16:06:31.771Z,91.50
2023-03-26T16:09:19.131Z,91.50
2023-03-26T16:11:51.327Z,91.10
2023-03-26T16:14:23.201Z,91.80
2023-03-26T16:16:54.452Z,91.20
2023-03-26T16:19:53.184Z,91.40
2023-03-26T16:22:43.769Z,91.30
2023-03-26T16:25:32.597Z,91.00
2023-03-26T16:28:21.207Z,91.30
2023-03-26T16:31:37.245Z,91.00
2023-03-26T16:34:27.244Z,90.60
2023-03-26T16:36:57.911Z,91.10
2023-03-26T16:39:38.384Z,90.90
2023-03-26T16:42:26.972Z,90.60
2023-03-26T16:44:59.201Z,90.90
2023-03-26T16:47:29.586Z,91.10
2023-03-26T16:50:08.430Z,90.80
2023-03-26T16:52:45.405Z,90.90
2023-03-26T16:55:19.413Z,90.80
2023-03-26T16:57:53.600Z,90.90
2023-03-26T17:00:48.041Z,91.10
2023-03-26T17:03:37.564Z,90.90
2023-03-26T17:06:12.599Z,90.70
2023-03-26T17:08:46.713Z,90.90
2023-03-26T17:11:22.626Z,90.80
2023-03-26T17:14:00.955Z,90.80
2023-03-26T17:16:31.035Z,90.50
2023-03-26T17:19:04.011Z,90.30
2023-03-26T17:21:45.561Z,90.70
2023-03-26T17:24:22.511Z,90.60
2023-03-26T17:26:54.728Z,90.10
2023-03-26T17:29:27.177Z,90.20
2023-03-26T17:32:00.998Z,90.10
2023-03-26T17:34:54.827Z,90.10
2023-03-26T17:37:48.553Z,90.30
2023-03-26T17:40:54.346Z,89.40
2023-03-26T17:43:40.345Z,89.50
2023-03-26T17:46:30.429Z,90.00
2023-03-26T17:49:02.784Z,90.20
2023-03-26T17:51:49.368Z,90.00
2023-03-26T17:54:23.438Z,90.40
2023-03-26T17:56:53.781Z,90.60
2023-03-26T17:59:24.104Z,90.60
2023-03-26T18:02:02.470Z,90.80
2023-03-26T18:04:32.643Z,90.80
2023-03-26T18:07:41.755Z,90.90
2023-03-26T18:10:18.175Z,90.70
2023-03-26T18:12:55.345Z,91.00
2023-03-26T18:15:27.065Z,90.60
2023-03-26T18:17:57.670Z,90.80
2023-03-26T18:20:27.396Z,91.00
2023-03-26T18:22:55.903Z,91.30
2023-03-26T18:25:31.474Z,90.80
2023-03-26T18:28:01.920Z,90.90
2023-03-26T18:30:30.329Z,91.20
2023-03-26T18:33:02.149Z,90.80
2023-03-26T18:35:40.441Z,90.90
2023-03-26T18:38:13.817Z,90.90
2023-03-26T18:40:42.309Z,90.90
2023-03-26T18:43:25.404Z,91.30
2023-03-26T18:46:02.728Z,91.60
2023-03-26T18:48:31.159Z,90.90
2023-03-26T18:51:04.760Z,91.10
2023-03-26T18:53:37.303Z,90.60
2023-03-26T18:56:19.107Z,90.60
2023-03-26T18:58:52.826Z,90.70
2023-03-26T19:01:26.067Z,90.70
2023-03-26T19:03:55.309Z,90.80
2023-03-26T19:06:23.682Z,90.40
2023-03-26T19:08:52.613Z,90.30
2023-03-26T19:11:20.921Z,90.40
2023-03-26T19:14:03.264Z,90.70
2023-03-26T19:16:33.934Z,90.50
2023-03-26T19:19:02.442Z,90.60
2023-03-26T19:21:30.823Z,90.40
2023-03-26T19:23:59.192Z,90.50
2023-03-26T19:26:27.625Z,90.30
2023-03-26T19:28:57.589Z,90.40
2023-03-26T19:31:27.882Z,90.10
2023-03-26T19:33:58.096Z,90.80
2023-03-26T19:36:28.219Z,90.30
2023-03-26T19:39:10.661Z,90.30
2023-03-26T19:41:43.685Z,90.10
2023-03-26T19:44:20.752Z,90.00
2023-03-26T19:46:53.398Z,90.20
2023-03-26T19:49:30.086Z,89.90
2023-03-26T19:52:08.478Z,90.00
2023-03-26T19:55:00.055Z,90.10
2023-03-26T19:57:30.087Z,90.40
2023-03-26T20:00:00.211Z,90.40
2023-03-26T20:02:28.728Z,90.40
2023-03-26T20:04:57.216Z,90.00
2023-03-26T20:07:35.609Z,90.20
2023-03-26T20:10:06.405Z,90.10
2023-03-26T20:12:34.813Z,90.10
2023-03-26T20:15:19.711Z,90.00
2023-03-26T20:17:50.180Z,90.40
2023-03-26T20:20:19.506Z,90.30
2023-03-26T20:22:48.131Z,90.00
2023-03-26T20:27:53.057Z,90.00
2023-03-26T20:30:37.006Z,90.40
2023-03-26T20:33:11.982Z,90.30
2023-03-26T20:35:41.717Z,90.60
2023-03-26T20:38:10.342Z,90.90
2023-03-26T20:40:39.177Z,90.50
2023-03-26T20:43:10.644Z,90.60
2023-03-26T20:45:40.404Z,91.90
2023-03-26T20:48:10.125Z,91.40
2023-03-26T20:50:49.997Z,91.90
2023-03-26T20:53:20.256Z,91.40
2023-03-26T20:55:51.035Z,91.50
2023-03-26T20:58:31.790Z,90.70
2023-03-26T21:01:06.327Z,91.50
2023-03-26T21:03:34.709Z,91.50
2023-03-26T21:06:03.371Z,91.30
2023-03-26T21:08:35.397Z,91.20
2023-03-26T21:11:04.819Z,91.20
2023-03-26T21:13:37.568Z,91.30
2023-03-26T21:16:08.518Z,90.90
2023-03-26T21:18:37.398Z,91.00
2023-03-26T21:21:20.278Z,91.10
2023-03-26T21:23:56.645Z,90.90
2023-03-26T21:26:27.479Z,91.30
2023-03-26T21:28:56.151Z,91.30
2023-03-26T21:31:26.527Z,91.00
2023-03-26T21:33:55.295Z,90.80
2023-03-26T21:36:24.218Z,91.40
2023-03-26T21:38:54.657Z,91.50
2023-03-26T21:41:35.648Z,91.60
2023-03-26T21:44:04.301Z,91.00
2023-03-26T21:46:34.922Z,91.10
2023-03-26T21:49:03.947Z,91.10
2023-03-26T21:51:33.885Z,91.00
2023-03-26T21:54:03.690Z,90.70
2023-03-26T21:56:39.849Z,91.30
2023-03-26T21:59:11.615Z,91.30
2023-03-26T22:01:46.399Z,91.30
2023-03-26T22:04:15.918Z,91.40
2023-03-26T22:06:49.827Z,91.40
2023-03-26T22:09:23.404Z,91.30
2023-03-26T22:11:55.267Z,91.00
2023-03-26T22:14:25.723Z,91.00
2023-03-26T22:16:55.388Z,91.00
2023-03-26T22:19:23.868Z,90.90
2023-03-26T22:21:52.218Z,91.10
2023-03-26T22:24:21.068Z,90.90
2023-03-26T22:26:49.408Z,91.60
2023-03-26T22:29:17.843Z,90.90
2023-03-26T22:31:46.506Z,91.00
2023-03-26T22:34:16.567Z,90.90
2023-03-26T22:36:44.900Z,91.10
2023-03-26T22:39:13.658Z,91.30
2023-03-26T22:41:42.014Z,91.40
2023-03-26T22:44:19.733Z,91.20
2023-03-26T22:46:52.302Z,91.30
2023-03-26T22:49:22.202Z,91.50
2023-03-26T22:51:51.262Z,91.30
2023-03-26T22:54:19.582Z,91.20
2023-03-26T22:56:48.110Z,91.20
2023-03-26T22:59:21.306Z,91.10
2023-03-26T23:01:49.755Z,91.10
2023-03-26T23:04:31.089Z,91.20
2023-03-26T23:07:01.831Z,91.00
2023-03-26T23:09:30.420Z,91.10
2023-03-26T23:11:58.753Z,91.00
2023-03-26T23:14:28.497Z,90.90
2023-03-26T23:16:57.192Z,91.20
2023-03-26T23:19:25.692Z,91.00
2023-03-26T23:21:54.012Z,90.70
2023-03-26T23:24:26.268Z,90.90
2023-03-26T23:26:54.659Z,91.40
2023-03-26T23:29:22.969Z,90.80
2023-03-26T23:31:52.872Z,91.10
2023-03-26T23:34:21.511Z,91.10
2023-03-26T23:36:56.530Z,91.40
2023-03-26T23:39:26.599Z,91.30
2023-03-26T23:41:54.952Z,91.20
2023-03-26T23:44:29.726Z,91.10
2023-03-26T23:47:00.455Z,90.80
2023-03-26T23:49:28.800Z,91.20
2023-03-26T23:51:57.151Z,91.10
2023-03-26T23:54:26.875Z,91.10
2023-03-26T23:56:55.185Z,91.30
2023-03-26T23:59:23.511Z,91.30
